Time;durP1;ratioP1;P1;durP2;ratioP2;P2;SDS_P1;SDS_P2;PMS_P1;PMS_P2;Temp;Humidity;BMP_temperature;BMP_pressure;BME280_temperature;BME280_humidity;BME280_pressure;Samples;Min_cycle;Max_cycle;Signal;HPM_P1;HPM_P2
2022/12/20 00:01:51;;;;;;;4.77;1.60;;;11.60;99.90;;;;;;5091908;28;20532;-80
2022/12/20 00:04:17;;;;;;;2.97;1.80;;;11.60;99.90;;;;;;5090957;28;20461;-79
2022/12/20 00:06:44;;;;;;;2.30;1.67;;;11.60;99.90;;;;;;5090614;28;20454;-80
2022/12/20 00:09:12;;;;;;;5.13;2.00;;;11.70;99.90;;;;;;5089648;28;20518;-80
2022/12/20 00:11:40;;;;;;;3.10;1.67;;;11.70;99.90;;;;;;5091444;28;20478;-81
2022/12/20 00:14:08;;;;;;;3.50;1.80;;;11.80;99.90;;;;;;5092293;28;20456;-80
2022/12/20 00:16:36;;;;;;;3.30;2.07;;;11.70;99.90;;;;;;5091431;28;20478;-82
2022/12/20 00:19:05;;;;;;;3.00;1.90;;;11.70;99.90;;;;;;5091460;28;20792;-82
2022/12/20 00:21:33;;;;;;;3.10;1.90;;;11.70;99.90;;;;;;5091963;28;20581;-81
2022/12/20 00:24:00;;;;;;;5.10;1.60;;;11.80;99.90;;;;;;5091716;28;20481;-82
2022/12/20 00:26:29;;;;;;;3.50;1.40;;;11.80;99.90;;;;;;5092551;28;20480;-81
2022/12/20 00:28:56;;;;;;;5.23;2.20;;;11.80;99.90;;;;;;5090654;28;20561;-81
2022/12/20 00:31:26;;;;;;;3.63;2.00;;;11.90;99.90;;;;;;5091917;28;20495;-81
2022/12/20 00:33:54;;;;;;;2.50;1.47;;;11.90;99.90;;;;;;5092017;28;20463;-81
2022/12/20 00:36:22;;;;;;;3.93;1.60;;;12.00;99.90;;;;;;5092280;28;20483;-81
2022/12/20 00:38:51;;;;;;;6.83;1.40;;;12.00;99.90;;;;;;5090682;28;20479;-81
2022/12/20 00:41:20;;;;;;;4.53;1.77;;;12.00;99.90;;;;;;5091805;28;20476;-81
2022/12/20 00:43:48;;;;;;;3.43;1.60;;;12.10;99.90;;;;;;5090824;28;20519;-81
2022/12/20 00:46:16;;;;;;;1.90;1.30;;;12.10;99.90;;;;;;5091246;28;20995;-81
2022/12/20 00:48:44;;;;;;;5.00;2.00;;;12.10;99.90;;;;;;5089535;28;20482;-81
2022/12/20 00:51:13;;;;;;;3.33;1.27;;;12.10;99.90;;;;;;5089906;28;20503;-81
2022/12/20 00:53:40;;;;;;;2.13;1.33;;;12.10;99.90;;;;;;5090524;28;20451;-82
2022/12/20 00:56:07;;;;;;;5.30;1.83;;;12.00;99.90;;;;;;5091035;28;20485;-81
2022/12/20 00:58:36;;;;;;;4.23;1.40;;;12.00;99.90;;;;;;5089991;28;20451;-82
2022/12/20 01:01:04;;;;;;;4.43;1.10;;;12.00;99.90;;;;;;5091242;28;20440;-82
2022/12/20 01:03:31;;;;;;;4.20;1.83;;;12.00;99.90;;;;;;5089651;28;20451;-82
2022/12/20 01:06:01;;;;;;;4.27;1.73;;;12.00;99.90;;;;;;5086512;28;20451;-81
2022/12/20 01:08:30;;;;;;;3.33;1.50;;;12.00;99.90;;;;;;5088636;28;20453;-82
2022/12/20 01:11:01;;;;;;;3.53;1.67;;;12.00;99.90;;;;;;5088662;28;20465;-82
2022/12/20 01:13:28;;;;;;;1.87;1.30;;;12.00;99.90;;;;;;5086753;28;20457;-81
2022/12/20 01:15:55;;;;;;;3.47;1.40;;;11.90;99.90;;;;;;5087179;28;20511;-82
2022/12/20 01:18:22;;;;;;;2.20;1.30;;;11.90;99.90;;;;;;5089267;28;20455;-82
2022/12/20 01:20:49;;;;;;;2.60;1.50;;;11.90;99.90;;;;;;5088615;28;20518;-81
2022/12/20 01:23:17;;;;;;;2.10;1.33;;;11.90;99.90;;;;;;5087626;28;20506;-81
2022/12/20 01:25:44;;;;;;;3.80;1.50;;;12.00;99.90;;;;;;5085790;28;20535;-80
2022/12/20 01:28:11;;;;;;;8.30;1.90;;;12.00;99.90;;;;;;5084157;28;20458;-81
2022/12/20 01:30:40;;;;;;;2.77;1.60;;;12.00;99.90;;;;;;5083737;28;20537;-81
2022/12/20 01:33:07;;;;;;;2.10;1.40;;;12.00;99.90;;;;;;5081539;28;20477;-81
2022/12/20 01:35:34;;;;;;;4.70;1.70;;;12.00;99.90;;;;;;5084815;28;20483;-81
2022/12/20 01:38:02;;;;;;;2.40;1.60;;;12.00;99.90;;;;;;5082585;28;20545;-80
2022/12/20 01:40:30;;;;;;;2.97;1.53;;;11.80;99.90;;;;;;5084421;28;20507;-80
2022/12/20 01:42:57;;;;;;;3.07;1.90;;;11.70;99.90;;;;;;5085103;28;20485;-80
2022/12/20 01:45:27;;;;;;;3.30;1.70;;;11.60;99.90;;;;;;5084188;28;20518;-80
2022/12/20 01:47:55;;;;;;;3.00;1.80;;;11.60;99.90;;;;;;5083126;28;20454;-79
2022/12/20 01:50:22;;;;;;;3.03;1.50;;;11.50;99.90;;;;;;5085529;28;20480;-81
2022/12/20 01:52:49;;;;;;;3.30;1.73;;;11.50;99.90;;;;;;5088947;28;20479;-81
2022/12/20 01:55:19;;;;;;;2.50;1.57;;;11.50;99.90;;;;;;5089255;28;20558;-81
2022/12/20 01:57:51;;;;;;;2.77;1.57;;;11.50;99.90;;;;;;5090078;28;20475;-81
2022/12/20 02:00:19;;;;;;;3.13;1.63;;;11.60;99.90;;;;;;5089372;28;20448;-80
2022/12/20 02:02:47;;;;;;;3.27;1.60;;;11.70;99.90;;;;;;5089040;28;20479;-82
2022/12/20 02:05:15;;;;;;;3.27;1.67;;;11.70;99.90;;;;;;5089241;28;20450;-82
2022/12/20 02:07:46;;;;;;;3.63;1.70;;;11.80;99.90;;;;;;5088871;28;20887;-80
2022/12/20 02:10:15;;;;;;;2.47;1.40;;;11.80;99.90;;;;;;5089261;28;20455;-81
2022/12/20 02:12:43;;;;;;;2.53;1.33;;;11.80;99.90;;;;;;5089325;28;21014;-81
2022/12/20 02:15:25;;;;;;;2.30;1.77;;;11.90;99.90;;;;;;5087436;28;20506;-81
2022/12/20 02:18:04;;;;;;;2.43;1.50;;;12.00;99.90;;;;;;5087284;28;20463;-80
2022/12/20 02:20:56;;;;;;;2.90;1.60;;;11.90;99.90;;;;;;5089379;28;20514;-81
2022/12/20 02:24:14;;;;;;;5.50;1.80;;;11.90;99.90;;;;;;5088807;28;20442;-82
2022/12/20 02:27:13;;;;;;;3.83;2.10;;;11.80;99.90;;;;;;5092573;28;20472;-81
2022/12/20 02:29:58;;;;;;;3.33;1.97;;;11.80;99.90;;;;;;5093959;28;20511;-80
2022/12/20 02:32:28;;;;;;;4.53;1.60;;;11.80;99.90;;;;;;5091533;28;20563;-80
2022/12/20 02:34:55;;;;;;;3.97;1.80;;;11.80;99.90;;;;;;5084925;28;20450;-80
2022/12/20 02:37:22;;;;;;;6.73;1.93;;;11.70;99.90;;;;;;5085393;28;20446;-80
2022/12/20 02:39:49;;;;;;;3.03;1.77;;;11.70;99.90;;;;;;5084462;28;20909;-80
2022/12/20 02:42:21;;;;;;;3.97;2.00;;;11.60;99.90;;;;;;5085010;28;20475;-80
2022/12/20 02:47:42;;;;;;;3.93;1.90;;;11.60;99.90;;;;;;5065079;28;20438;-82
2022/12/20 02:50:11;;;;;;;2.73;1.73;;;11.60;99.90;;;;;;5064242;28;20826;-80
2022/12/20 02:52:38;;;;;;;3.20;2.30;;;11.60;99.90;;;;;;5084761;28;20522;-79
2022/12/20 02:55:07;;;;;;;6.77;2.20;;;11.60;99.90;;;;;;5083456;28;20451;-80
2022/12/20 02:57:42;;;;;;;2.23;1.40;;;11.60;99.90;;;;;;5084645;28;20461;-81
2022/12/20 03:00:13;;;;;;;3.10;1.80;;;11.60;99.90;;;;;;5083850;28;20458;-81
2022/12/20 03:05:27;;;;;;;3.27;2.00;;;11.50;99.90;;;;;;5082922;28;20453;-80
2022/12/20 03:07:55;;;;;;;4.23;2.20;;;11.50;99.90;;;;;;5084571;28;20458;-80
2022/12/20 03:10:22;;;;;;;3.83;1.93;;;11.50;99.90;;;;;;5082095;28;20453;-81
2022/12/20 03:12:49;;;;;;;5.23;2.03;;;11.50;99.90;;;;;;5084207;28;20542;-81
2022/12/20 03:15:16;;;;;;;6.13;2.10;;;11.40;99.90;;;;;;5082038;28;20453;-79
2022/12/20 03:17:44;;;;;;;3.07;2.10;;;11.40;99.90;;;;;;5082248;28;20462;-80
2022/12/20 03:20:11;;;;;;;3.73;2.10;;;11.40;99.90;;;;;;5083102;28;20458;-81
2022/12/20 03:22:38;;;;;;;4.10;1.83;;;11.30;99.90;;;;;;5082003;28;20471;-81
2022/12/20 03:25:06;;;;;;;2.63;1.93;;;11.20;99.90;;;;;;5081419;28;20861;-79
2022/12/20 03:27:33;;;;;;;3.47;2.33;;;11.20;99.90;;;;;;5082332;28;20461;-80
2022/12/20 03:30:00;;;;;;;3.10;1.90;;;11.10;99.90;;;;;;5081947;28;20454;-80
2022/12/20 03:32:27;;;;;;;6.60;3.00;;;10.90;99.90;;;;;;5079603;28;20478;-80
2022/12/20 03:34:55;;;;;;;5.20;2.40;;;10.80;99.90;;;;;;5081497;28;20457;-80
2022/12/20 03:37:22;;;;;;;4.37;2.60;;;10.70;99.90;;;;;;5081388;28;20517;-80
2022/12/20 03:39:49;;;;;;;4.27;2.60;;;10.70;99.90;;;;;;5079258;28;20450;-80
2022/12/20 03:42:16;;;;;;;4.23;2.33;;;10.70;99.90;;;;;;5080604;28;20493;-80
2022/12/20 03:44:43;;;;;;;3.90;2.67;;;10.60;99.90;;;;;;5079530;28;20456;-81
2022/12/20 03:47:10;;;;;;;4.53;2.30;;;10.60;99.90;;;;;;5078178;28;20977;-81
2022/12/20 03:49:37;;;;;;;4.60;2.80;;;10.50;99.90;;;;;;5078495;28;20453;-81
2022/12/20 03:52:05;;;;;;;5.20;2.50;;;10.40;99.90;;;;;;5080686;28;20582;-81
2022/12/20 03:54:32;;;;;;;5.23;3.10;;;10.40;99.90;;;;;;5082603;28;20454;-80
2022/12/20 03:56:58;;;;;;;4.17;3.17;;;10.30;99.90;;;;;;5082077;28;20561;-81
2022/12/20 03:59:25;;;;;;;3.00;2.50;;;10.30;99.90;;;;;;5081909;28;20552;-80
2022/12/20 04:01:52;;;;;;;5.10;2.53;;;10.30;99.90;;;;;;5080871;28;21061;-80
2022/12/20 04:04:19;;;;;;;4.47;2.37;;;10.30;99.90;;;;;;5081913;28;20552;-80
2022/12/20 04:06:47;;;;;;;3.37;2.47;;;10.30;99.90;;;;;;5083606;28;20445;-80
2022/12/20 04:09:15;;;;;;;5.50;3.30;;;10.30;99.90;;;;;;5081137;28;20480;-81
2022/12/20 04:11:46;;;;;;;3.50;2.60;;;10.20;99.90;;;;;;5082388;28;20478;-80
2022/12/20 04:14:13;;;;;;;7.83;2.43;;;10.20;99.90;;;;;;5081185;28;20848;-81
2022/12/20 04:16:40;;;;;;;5.00;2.80;;;10.30;99.90;;;;;;5082817;28;20572;-81
2022/12/20 04:19:07;;;;;;;3.30;2.63;;;10.30;99.90;;;;;;5083300;28;20522;-80
2022/12/20 04:24:03;;;;;;;3.83;2.70;;;10.20;99.90;;;;;;5091255;22;20532;-83
2022/12/20 04:26:31;;;;;;;5.63;2.50;;;10.20;99.90;;;;;;5075110;28;20446;-83
2022/12/20 04:28:58;;;;;;;5.73;2.37;;;10.20;99.90;;;;;;5077080;28;20449;-85
2022/12/20 04:31:25;;;;;;;4.67;2.73;;;10.20;99.90;;;;;;5077550;28;20545;-84
2022/12/20 04:33:52;;;;;;;4.03;2.10;;;10.20;99.90;;;;;;5077106;28;20476;-82
2022/12/20 04:36:20;;;;;;;3.80;2.70;;;10.20;99.90;;;;;;5077871;28;21157;-83
2022/12/20 04:38:46;;;;;;;8.30;2.80;;;10.20;99.90;;;;;;5073810;28;20461;-84
2022/12/20 04:41:21;;;;;;;3.80;2.63;;;10.20;99.90;;;;;;5075879;28;20470;-85
2022/12/20 04:43:51;;;;;;;5.40;2.97;;;10.20;99.90;;;;;;5057882;28;20996;-82
2022/12/20 04:46:18;;;;;;;3.60;2.37;;;10.20;99.90;;;;;;5076638;28;20840;-84
2022/12/20 04:48:45;;;;;;;4.30;2.57;;;10.20;99.90;;;;;;5075778;28;20472;-85
2022/12/20 04:51:12;;;;;;;4.27;2.63;;;10.20;99.90;;;;;;5075017;28;20446;-83
2022/12/20 04:53:47;;;;;;;3.83;2.53;;;10.20;99.90;;;;;;5076713;28;20474;-81
2022/12/20 04:56:17;;;;;;;2.87;2.40;;;10.20;99.90;;;;;;5077591;28;20476;-86
2022/12/20 04:58:44;;;;;;;4.43;2.80;;;10.20;99.90;;;;;;5077095;28;20460;-85
2022/12/20 05:01:12;;;;;;;4.70;2.07;;;10.20;99.90;;;;;;5077010;28;20462;-85
2022/12/20 05:03:39;;;;;;;4.90;3.23;;;10.30;99.90;;;;;;5077220;28;20561;-82
2022/12/20 05:06:08;;;;;;;5.20;2.70;;;10.30;99.90;;;;;;5077220;28;20447;-85
2022/12/20 05:08:36;;;;;;;5.00;2.50;;;10.20;99.90;;;;;;5077120;28;21038;-84
2022/12/20 05:11:04;;;;;;;4.03;2.97;;;10.20;99.90;;;;;;5078571;28;20847;-85
2022/12/20 05:13:31;;;;;;;3.43;2.67;;;10.20;99.90;;;;;;5074777;28;20486;-84
2022/12/20 05:15:58;;;;;;;4.10;2.50;;;10.20;99.90;;;;;;5079506;28;21064;-84
2022/12/20 05:18:27;;;;;;;5.40;3.10;;;10.20;99.90;;;;;;5077000;28;20541;-84
2022/12/20 05:26:23;;;;;;;4.83;2.90;;;10.20;99.90;;;;;;5072412;28;20819;-84
2022/12/20 05:28:50;;;;;;;4.33;2.67;;;10.20;99.90;;;;;;5076547;28;20466;-84
2022/12/20 05:31:17;;;;;;;4.40;3.00;;;10.10;99.90;;;;;;5078006;28;20822;-83
2022/12/20 05:33:45;;;;;;;5.67;2.90;;;10.10;99.90;;;;;;5077563;28;20474;-84
2022/12/20 05:36:12;;;;;;;3.77;2.90;;;10.10;99.90;;;;;;5073561;28;20485;-83
2022/12/20 05:38:39;;;;;;;4.20;2.53;;;10.10;99.90;;;;;;5077965;28;20460;-83
2022/12/20 05:41:07;;;;;;;6.60;2.80;;;10.10;99.90;;;;;;5077845;28;20454;-85
2022/12/20 05:43:34;;;;;;;3.20;2.60;;;10.10;99.90;;;;;;5077657;28;20545;-85
2022/12/20 05:46:01;;;;;;;4.70;3.40;;;10.10;99.90;;;;;;5088093;28;20430;-84
2022/12/20 05:48:28;;;;;;;5.20;2.87;;;10.10;99.90;;;;;;5093362;28;20869;-84
2022/12/20 05:50:56;;;;;;;4.33;2.70;;;10.10;99.90;;;;;;5076488;28;20449;-84
2022/12/20 05:53:23;;;;;;;4.27;3.00;;;10.10;99.90;;;;;;5076533;28;20988;-84
2022/12/20 05:55:51;;;;;;;7.40;4.20;;;10.10;99.90;;;;;;5076571;28;20447;-84
2022/12/20 05:58:18;;;;;;;3.33;2.57;;;10.00;99.90;;;;;;5075651;28;20452;-85
2022/12/20 06:00:46;;;;;;;4.50;2.73;;;10.00;99.90;;;;;;5077426;28;20448;-85
2022/12/20 06:03:14;;;;;;;4.37;3.00;;;10.00;99.90;;;;;;5075998;28;20480;-84
2022/12/20 06:05:41;;;;;;;3.47;2.87;;;10.00;99.90;;;;;;5078620;28;20446;-82
2022/12/20 06:08:10;;;;;;;4.23;2.90;;;10.00;99.90;;;;;;5076688;28;21341;-84
2022/12/20 06:10:37;;;;;;;4.43;3.10;;;10.00;99.90;;;;;;5074146;28;20492;-84
2022/12/20 06:13:04;;;;;;;5.27;3.50;;;10.10;99.90;;;;;;5077084;28;20823;-82
2022/12/20 06:15:32;;;;;;;5.10;3.37;;;10.00;99.90;;;;;;5078635;28;20456;-84
2022/12/20 06:17:58;;;;;;;5.43;2.30;;;10.00;99.90;;;;;;5086785;28;20512;-83
2022/12/20 06:20:25;;;;;;;3.23;2.47;;;10.10;99.90;;;;;;5083146;28;20459;-84
2022/12/20 06:22:52;;;;;;;3.83;2.83;;;10.10;99.90;;;;;;5080999;28;20567;-82
2022/12/20 06:25:20;;;;;;;5.73;3.23;;;10.10;99.90;;;;;;5081834;28;20503;-84
2022/12/20 06:27:48;;;;;;;5.33;2.53;;;10.10;99.90;;;;;;5079015;28;20444;-79
2022/12/20 06:30:15;;;;;;;5.03;2.87;;;10.20;99.90;;;;;;5084952;28;20564;-83
2022/12/20 06:32:42;;;;;;;4.07;2.00;;;10.20;99.90;;;;;;5079219;28;21473;-82
2022/12/20 06:35:09;;;;;;;3.43;2.70;;;10.90;99.90;;;;;;5071974;28;20530;-84
2022/12/20 06:37:38;;;;;;;3.87;3.07;;;11.10;99.90;;;;;;5078091;28;20471;-85
2022/12/20 06:40:09;;;;;;;3.03;2.20;;;10.90;99.90;;;;;;5072371;28;20499;-84
2022/12/20 06:42:38;;;;;;;5.87;2.60;;;10.90;99.90;;;;;;5076263;28;20561;-84
2022/12/20 06:45:05;;;;;;;3.63;2.20;;;10.80;99.90;;;;;;5084391;28;20514;-85
2022/12/20 06:47:32;;;;;;;3.90;2.73;;;10.70;99.90;;;;;;5086183;28;20447;-84
2022/12/20 06:49:59;;;;;;;4.03;2.47;;;10.70;99.90;;;;;;5069835;28;20455;-86
2022/12/20 06:52:26;;;;;;;4.13;2.50;;;10.70;99.90;;;;;;5079769;28;20556;-83
2022/12/20 06:54:53;;;;;;;4.50;2.50;;;10.60;99.90;;;;;;5080391;28;20569;-84
2022/12/20 06:57:20;;;;;;;3.50;2.07;;;10.70;99.90;;;;;;5072569;28;20500;-84
2022/12/20 06:59:48;;;;;;;5.10;2.80;;;10.70;99.90;;;;;;5068886;28;20462;-83
2022/12/20 07:02:15;;;;;;;3.57;2.60;;;10.70;99.90;;;;;;5077647;28;21102;-85
2022/12/20 07:04:42;;;;;;;4.27;2.47;;;10.60;99.90;;;;;;5080722;28;20486;-84
2022/12/20 07:07:09;;;;;;;5.90;2.40;;;10.70;99.90;;;;;;5087722;28;21139;-85
2022/12/20 07:09:36;;;;;;;3.10;2.00;;;10.60;99.90;;;;;;5057716;28;21022;-84
2022/12/20 07:12:04;;;;;;;3.77;2.07;;;10.70;99.90;;;;;;5069973;28;20512;-85
2022/12/20 07:14:31;;;;;;;5.20;1.87;;;10.60;99.90;;;;;;5064093;28;20544;-85
2022/12/20 07:16:59;;;;;;;3.50;2.60;;;10.70;99.90;;;;;;5069925;28;20490;-84
2022/12/20 07:19:26;;;;;;;3.57;2.27;;;10.70;99.90;;;;;;5072798;28;20467;-84
2022/12/20 07:21:52;;;;;;;3.57;2.20;;;10.80;99.90;;;;;;5072210;28;20457;-84
2022/12/20 07:24:19;;;;;;;3.27;2.13;;;10.90;99.90;;;;;;5071794;28;20549;-85
2022/12/20 07:26:46;;;;;;;7.00;2.40;;;10.90;99.90;;;;;;5071765;28;20449;-85
2022/12/20 07:29:14;;;;;;;3.27;1.80;;;10.90;99.90;;;;;;5088696;28;20953;-85
2022/12/20 07:31:40;;;;;;;3.17;1.87;;;10.80;99.90;;;;;;5083147;28;20481;-85
2022/12/20 07:34:10;;;;;;;4.10;2.33;;;10.90;99.90;;;;;;5079958;28;20544;-86
2022/12/20 07:36:37;;;;;;;4.53;2.23;;;10.80;99.90;;;;;;5081316;28;20473;-85
2022/12/20 07:39:04;;;;;;;2.80;2.10;;;10.80;99.90;;;;;;5081635;28;20458;-84
2022/12/20 07:41:31;;;;;;;3.83;2.37;;;10.80;99.90;;;;;;5079798;28;20649;-85
2022/12/20 07:43:59;;;;;;;3.40;2.10;;;10.80;99.90;;;;;;5081537;28;20479;-85
2022/12/20 07:46:26;;;;;;;3.80;2.10;;;10.70;99.90;;;;;;5076936;28;20462;-84
2022/12/20 07:48:53;;;;;;;5.30;2.10;;;10.80;99.90;;;;;;5082381;28;21294;-85
2022/12/20 07:51:25;;;;;;;3.77;2.07;;;10.80;99.90;;;;;;5089504;28;20489;-85
2022/12/20 07:53:57;;;;;;;5.00;2.47;;;10.80;99.90;;;;;;5072770;28;20478;-85
2022/12/20 07:56:25;;;;;;;2.57;1.73;;;10.80;99.90;;;;;;5074784;28;20460;-86
2022/12/20 07:58:57;;;;;;;3.00;2.10;;;10.80;99.90;;;;;;5089496;28;20454;-86
2022/12/20 08:01:25;;;;;;;5.70;2.00;;;10.90;99.90;;;;;;5096173;28;20460;-84
2022/12/20 08:03:56;;;;;;;5.17;2.13;;;11.00;99.90;;;;;;5077973;28;20483;-85
2022/12/20 08:06:25;;;;;;;3.40;1.87;;;11.00;99.90;;;;;;5076928;28;20466;-84
2022/12/20 08:08:57;;;;;;;3.33;1.70;;;11.10;99.90;;;;;;5070018;28;20508;-85
2022/12/20 08:11:24;;;;;;;3.43;2.43;;;11.10;99.90;;;;;;5072899;28;20457;-84
2022/12/20 08:13:52;;;;;;;3.73;1.87;;;11.20;99.90;;;;;;5074675;28;20501;-85
2022/12/20 08:16:19;;;;;;;2.57;1.60;;;11.30;99.90;;;;;;5075517;28;20485;-87
2022/12/20 08:18:46;;;;;;;4.70;2.10;;;11.30;99.90;;;;;;5079707;28;20482;-86
2022/12/20 08:21:13;;;;;;;4.17;1.93;;;11.30;99.90;;;;;;5079342;28;20541;-86
2022/12/20 08:23:41;;;;;;;6.33;2.00;;;11.30;99.90;;;;;;5077551;28;20490;-84
2022/12/20 08:26:08;;;;;;;3.50;2.30;;;11.30;99.90;;;;;;5078709;28;20538;-85
2022/12/20 08:28:35;;;;;;;3.80;1.70;;;11.40;99.90;;;;;;5079304;28;20447;-86
2022/12/20 08:31:02;;;;;;;6.30;2.20;;;11.30;99.90;;;;;;5077548;28;20546;-85
2022/12/20 08:33:29;;;;;;;2.30;1.27;;;11.30;99.90;;;;;;5099151;28;20878;-85
2022/12/20 08:36:01;;;;;;;3.17;1.60;;;11.40;99.90;;;;;;5077953;28;20453;-86
2022/12/20 08:38:29;;;;;;;3.53;1.50;;;11.40;99.90;;;;;;5075703;28;20477;-86
2022/12/20 08:41:03;;;;;;;3.17;2.00;;;11.50;99.90;;;;;;5073511;28;20459;-86
2022/12/20 08:43:31;;;;;;;2.63;1.63;;;11.60;99.90;;;;;;5077591;28;20582;-85
2022/12/20 08:45:57;;;;;;;3.10;1.87;;;11.70;99.90;;;;;;5078652;28;20461;-85
2022/12/20 08:48:24;;;;;;;3.40;1.80;;;11.70;99.90;;;;;;5078081;28;20450;-85
2022/12/20 08:50:55;;;;;;;3.20;1.50;;;11.80;99.90;;;;;;5111989;28;20503;-86
2022/12/20 08:53:22;;;;;;;5.70;1.57;;;11.90;99.90;;;;;;5101102;28;20466;-86
2022/12/20 08:55:49;;;;;;;2.70;1.50;;;11.80;99.90;;;;;;5103884;28;20511;-85
2022/12/20 08:58:17;;;;;;;2.30;1.50;;;11.90;99.90;;;;;;5097903;28;20550;-87
2022/12/20 09:00:44;;;;;;;2.00;1.33;;;12.00;99.90;;;;;;5091839;28;20477;-85
2022/12/20 09:03:12;;;;;;;2.73;2.07;;;12.00;99.90;;;;;;5074907;28;20533;-84
2022/12/20 09:05:44;;;;;;;3.17;1.40;;;12.10;99.90;;;;;;5090853;28;20494;-84
2022/12/20 09:08:11;;;;;;;3.50;1.67;;;12.10;99.90;;;;;;5092475;28;20439;-85
2022/12/20 09:10:38;;;;;;;2.37;1.57;;;12.20;99.90;;;;;;5092468;28;20484;-86
2022/12/20 09:13:05;;;;;;;3.03;1.67;;;12.30;99.90;;;;;;5082087;28;20459;-85
2022/12/20 09:15:34;;;;;;;4.27;1.50;;;12.30;99.90;;;;;;5078751;28;20534;-86
2022/12/20 09:18:00;;;;;;;2.73;1.93;;;12.30;99.90;;;;;;5078319;28;20517;-86
2022/12/20 09:20:27;;;;;;;3.60;2.03;;;12.30;99.90;;;;;;5099861;28;20454;-86
2022/12/20 09:22:54;;;;;;;5.30;1.90;;;12.40;99.90;;;;;;5099395;28;20569;-85
2022/12/20 09:25:21;;;;;;;3.80;1.57;;;12.30;99.90;;;;;;5079958;28;20456;-85
2022/12/20 09:27:48;;;;;;;8.03;2.23;;;12.40;99.90;;;;;;5077314;28;20465;-84
2022/12/20 09:30:15;;;;;;;4.57;1.60;;;12.40;99.90;;;;;;5066856;28;20458;-85
2022/12/20 09:32:43;;;;;;;3.77;1.80;;;12.40;99.90;;;;;;5077630;28;21018;-85
2022/12/20 09:35:11;;;;;;;3.00;1.90;;;12.50;99.90;;;;;;5077628;28;20494;-85
2022/12/20 09:37:38;;;;;;;3.30;2.10;;;12.50;99.90;;;;;;5077437;28;20486;-86
2022/12/20 09:40:07;;;;;;;3.00;1.80;;;12.50;99.90;;;;;;5075179;28;21234;-86
2022/12/20 09:42:33;;;;;;;4.33;1.47;;;12.50;99.90;;;;;;5077351;28;20976;-85
2022/12/20 09:45:06;;;;;;;4.17;2.03;;;12.50;99.90;;;;;;5073092;28;20927;-86
2022/12/20 09:47:34;;;;;;;4.27;2.03;;;12.50;99.90;;;;;;5075535;28;20506;-87
2022/12/20 09:50:05;;;;;;;3.23;1.60;;;12.50;99.90;;;;;;5078450;28;20891;-85
2022/12/20 09:52:47;;;;;;;3.07;1.57;;;12.50;99.90;;;;;;5079446;28;20506;-84
2022/12/20 09:55:23;;;;;;;2.17;1.40;;;12.40;99.90;;;;;;5074652;28;20484;-86
2022/12/20 09:58:02;;;;;;;4.53;1.73;;;12.40;99.90;;;;;;5067669;28;20505;-87
2022/12/20 10:00:29;;;;;;;2.90;1.80;;;12.40;99.90;;;;;;5075135;28;20849;-85
2022/12/20 10:02:56;;;;;;;5.30;1.70;;;12.30;99.90;;;;;;5076634;28;20557;-85
2022/12/20 10:05:32;;;;;;;3.70;1.60;;;12.40;99.90;;;;;;5076899;28;20500;-84
2022/12/20 10:08:06;;;;;;;2.97;1.60;;;12.40;99.90;;;;;;5058588;28;20443;-85
2022/12/20 10:10:54;;;;;;;3.43;1.50;;;12.40;99.90;;;;;;5079157;28;20456;-86
2022/12/20 10:13:45;;;;;;;2.90;1.67;;;12.50;99.90;;;;;;5097833;28;20475;-85
2022/12/20 10:16:37;;;;;;;2.87;1.53;;;12.40;99.90;;;;;;5077465;28;20430;-85
2022/12/20 10:19:21;;;;;;;4.50;2.20;;;12.30;99.90;;;;;;5074692;28;20483;-85
2022/12/20 10:21:55;;;;;;;2.33;1.43;;;12.30;99.90;;;;;;5077216;28;20515;-86
2022/12/20 10:24:27;;;;;;;6.97;1.80;;;12.30;99.90;;;;;;5076630;28;20452;-85
2022/12/20 10:26:54;;;;;;;3.07;1.70;;;12.30;99.90;;;;;;5079810;28;20447;-86
2022/12/20 10:29:21;;;;;;;4.33;1.80;;;12.30;99.90;;;;;;5077111;28;20515;-85
2022/12/20 10:31:51;;;;;;;3.37;1.60;;;12.40;99.90;;;;;;5075820;28;20451;-86
2022/12/20 10:34:17;;;;;;;3.87;2.17;;;12.40;99.90;;;;;;5078182;28;20458;-86
2022/12/20 10:36:45;;;;;;;5.40;1.53;;;12.50;99.90;;;;;;5062201;28;20562;-85
2022/12/20 10:39:13;;;;;;;4.43;1.97;;;12.60;99.90;;;;;;5075092;28;20483;-86
2022/12/20 10:41:50;;;;;;;3.30;1.43;;;12.70;99.90;;;;;;5077592;28;20871;-84
2022/12/20 10:44:23;;;;;;;2.80;1.60;;;12.80;99.90;;;;;;5077622;28;20435;-85
2022/12/20 10:46:54;;;;;;;5.40;1.97;;;12.80;99.90;;;;;;5087956;28;20477;-86
2022/12/20 10:49:26;;;;;;;3.13;1.40;;;12.90;99.90;;;;;;5081349;28;20477;-84
2022/12/20 10:51:55;;;;;;;2.70;1.60;;;13.00;99.90;;;;;;5085530;28;20801;-85
2022/12/20 10:54:28;;;;;;;3.30;1.60;;;13.10;99.90;;;;;;5084678;28;20527;-86
2022/12/20 10:56:57;;;;;;;4.97;2.87;;;13.30;99.90;;;;;;5085971;28;20457;-84
2022/12/20 10:59:31;;;;;;;3.93;2.00;;;13.40;99.90;;;;;;5079040;28;20479;-86
2022/12/20 11:01:58;;;;;;;2.70;1.40;;;13.50;99.90;;;;;;5066875;28;20431;-86
2022/12/20 11:04:28;;;;;;;4.60;1.73;;;13.50;99.90;;;;;;5066467;28;21029;-83
2022/12/20 11:06:55;;;;;;;7.33;2.33;;;13.60;99.90;;;;;;5077586;28;20452;-83
2022/12/20 11:09:34;;;;;;;5.23;1.30;;;13.80;99.90;;;;;;5079019;28;20462;-86
2022/12/20 11:12:04;;;;;;;5.53;1.60;;;13.90;99.90;;;;;;5080128;28;20507;-85
2022/12/20 11:14:34;;;;;;;2.73;1.50;;;13.80;99.90;;;;;;5079264;28;20451;-85
2022/12/20 11:17:05;;;;;;;5.97;2.03;;;13.90;99.90;;;;;;5080821;28;20452;-85
2022/12/20 11:19:53;;;;;;;2.20;1.30;;;13.60;99.90;;;;;;5071870;28;20477;-83
2022/12/20 11:22:36;;;;;;;3.20;1.33;;;13.70;99.90;;;;;;5079911;28;20517;-82
2022/12/20 11:25:22;;;;;;;2.63;1.80;;;13.50;99.90;;;;;;5077832;28;20490;-84
2022/12/20 11:27:58;;;;;;;3.10;1.77;;;13.60;99.90;;;;;;5073750;28;20447;-82
2022/12/20 11:30:27;;;;;;;2.90;1.57;;;13.70;99.90;;;;;;5075458;28;20531;-82
2022/12/20 11:33:07;;;;;;;2.20;1.33;;;13.60;99.90;;;;;;5079210;28;21222;-81
2022/12/20 11:35:46;;;;;;;6.73;1.47;;;13.70;99.90;;;;;;5073603;28;20455;-85
2022/12/20 11:38:22;;;;;;;4.70;1.40;;;13.70;99.90;;;;;;5078606;28;20499;-85
2022/12/20 11:40:57;;;;;;;3.30;2.00;;;13.70;99.90;;;;;;5075085;28;20454;-84
2022/12/20 11:43:41;;;;;;;2.97;1.87;;;13.70;99.90;;;;;;5076073;28;20464;-85
2022/12/20 11:46:27;;;;;;;2.73;1.60;;;13.60;99.90;;;;;;5076843;28;20545;-86
2022/12/20 11:49:12;;;;;;;4.30;2.07;;;13.40;99.90;;;;;;5076784;28;20486;-85
2022/12/20 11:51:45;;;;;;;3.30;1.30;;;13.20;99.90;;;;;;5076614;28;20807;-85
2022/12/20 11:54:17;;;;;;;3.10;1.50;;;13.20;99.90;;;;;;5077040;28;20444;-84
2022/12/20 11:56:47;;;;;;;5.03;1.60;;;13.10;99.90;;;;;;5078609;28;20448;-84
2022/12/20 11:59:22;;;;;;;4.50;1.30;;;13.10;99.90;;;;;;5070704;28;20491;-85
2022/12/20 12:01:56;;;;;;;3.90;1.83;;;13.10;99.90;;;;;;5074610;28;20543;-86
2022/12/20 12:04:27;;;;;;;5.40;1.60;;;13.00;99.90;;;;;;5073408;28;20515;-84
2022/12/20 12:06:58;;;;;;;2.53;1.30;;;13.00;99.90;;;;;;5080489;28;20556;-83
2022/12/20 12:09:30;;;;;;;2.20;1.50;;;13.10;99.90;;;;;;5069894;28;20443;-85
2022/12/20 12:12:03;;;;;;;6.43;1.90;;;13.10;99.90;;;;;;5075776;28;20454;-85
2022/12/20 12:14:41;;;;;;;3.37;1.50;;;13.20;99.90;;;;;;5077329;28;20437;-84
2022/12/20 12:17:13;;;;;;;3.40;1.60;;;13.20;99.90;;;;;;5076598;28;20444;-85
2022/12/20 12:19:46;;;;;;;3.90;2.03;;;13.20;99.90;;;;;;5078873;28;20558;-84
2022/12/20 12:22:20;;;;;;;3.90;1.80;;;13.20;99.90;;;;;;5074606;28;20504;-85
2022/12/20 12:24:51;;;;;;;5.30;2.30;;;13.20;99.90;;;;;;5087137;28;20498;-87
2022/12/20 12:27:24;;;;;;;3.87;1.70;;;13.20;99.90;;;;;;5094214;28;20770;-85
2022/12/20 12:29:53;;;;;;;4.37;2.00;;;13.20;99.90;;;;;;5077462;28;20447;-86
2022/12/20 12:32:29;;;;;;;3.60;1.53;;;13.20;99.90;;;;;;5079291;28;20477;-85
2022/12/20 12:35:12;;;;;;;2.27;1.57;;;13.10;99.90;;;;;;5077676;28;20526;-85
2022/12/20 12:37:54;;;;;;;6.03;1.93;;;13.20;99.90;;;;;;5078958;28;20452;-86
2022/12/20 12:40:54;;;;;;;4.40;1.90;;;13.30;99.90;;;;;;5073667;28;20773;-86
2022/12/20 12:43:43;;;;;;;2.67;1.47;;;13.30;99.90;;;;;;5058338;28;20570;-84
2022/12/20 12:46:12;;;;;;;2.70;1.77;;;13.30;99.90;;;;;;5076394;28;20459;-83
2022/12/20 12:48:43;;;;;;;4.27;1.30;;;13.40;99.90;;;;;;5078707;28;20866;-85
2022/12/20 12:51:12;;;;;;;2.40;1.40;;;13.50;99.90;;;;;;5074739;28;20533;-84
2022/12/20 12:53:44;;;;;;;9.20;1.80;;;13.50;99.90;;;;;;5071778;28;20556;-85
2022/12/20 12:56:39;;;;;;;4.23;1.80;;;13.50;99.90;;;;;;5075121;28;20843;-85
2022/12/20 12:59:38;;;;;;;2.77;1.40;;;13.40;99.90;;;;;;5041001;28;20976;-83
2022/12/20 13:02:33;;;;;;;4.23;1.50;;;13.60;99.90;;;;;;5075524;28;20853;-83
2022/12/20 13:05:01;;;;;;;4.00;1.67;;;13.60;99.90;;;;;;5075697;28;20935;-83
2022/12/20 13:07:42;;;;;;;2.97;1.37;;;13.60;99.90;;;;;;5074919;28;20528;-83
2022/12/20 13:10:42;;;;;;;5.70;1.80;;;13.70;99.90;;;;;;5075393;28;20439;-84
2022/12/20 13:13:14;;;;;;;3.10;1.60;;;13.80;99.90;;;;;;5075125;28;20543;-83
2022/12/20 13:16:05;;;;;;;5.63;2.40;;;13.60;99.90;;;;;;5076673;28;20435;-84
2022/12/20 13:18:32;;;;;;;3.60;2.00;;;13.30;99.90;;;;;;5072632;28;20486;-84